Ilford, Canada
Current Conditions -  °F | °C
As of 1:00 AM on Saturday 29 Nov 2014 (Local Time) from CYGX Reporting Station
Overcast Overcast  
Wind Chill: -25°   Ceiling: 20000
Heat Index: -13°   Visibility: 15mi
Dew Point: -20°   Wind: 5mph
Humidity: 70%   Direction: 300°WNW
Pressure: 29.9"   Gusts: NA
Location:  56.04°N, 95.58°W
Report Text: CYGX 290700Z 30004KT 15SM OVC200 M25/M29 A2990 RMK CS8 SLP148
Loading
Personal Weather Stations






























Interactive Weather Map New forecast layout! Learn more

10-Day Weather Forecast

Advertisements
Track Severe Weather on mobile